Time;durP1;ratioP1;P1;durP2;ratioP2;P2;SDS_P1;SDS_P2;PMS_P1;PMS_P2;Temp;Humidity;BMP_temperature;BMP_pressure;BME280_temperature;BME280_humidity;BME280_pressure;Samples;Min_cycle;Max_cycle;Signal;HPM_P1;HPM_P2
2022/06/23 00:01:22;;;;;;;10.65;7.00;;;15.70;99.90;;;;;;5036636;28;20055;-70
2022/06/23 00:03:49;;;;;;;11.68;6.72;;;15.70;99.90;;;;;;5035837;28;20048;-70
2022/06/23 00:06:38;;;;;;;11.60;7.47;;;15.70;99.90;;;;;;5052338;28;20057;-70
2022/06/23 00:09:24;;;;;;;;;;;15.60;99.90;;;;;;5052706;28;20460;-70
2022/06/23 00:11:51;;;;;;;;;;;15.60;99.90;;;;;;5054122;28;20363;-70
2022/06/23 00:14:17;;;;;;;;;;;15.50;99.90;;;;;;5053810;28;19921;-70
2022/06/23 00:16:44;;;;;;;;;;;15.40;99.90;;;;;;5086210;28;19917;-70
2022/06/23 00:19:12;;;;;;;;;;;15.30;99.90;;;;;;5053639;28;20360;-70
2022/06/23 00:21:39;;;;;;;;;;;15.30;99.90;;;;;;5086114;28;20256;-70
2022/06/23 00:24:06;;;;;;;;;;;15.20;99.90;;;;;;5054063;28;20023;-70
2022/06/23 00:26:33;;;;;;;;;;;15.20;99.90;;;;;;5085344;28;19996;-70
2022/06/23 00:29:04;;;;;;;;;;;15.10;99.90;;;;;;5086190;28;19916;-70
2022/06/23 00:31:35;;;;;;;;;;;15.10;99.90;;;;;;5085808;28;19978;-70
2022/06/23 00:34:02;;;;;;;;;;;15.10;99.90;;;;;;5085540;28;20267;-70
2022/06/23 00:36:36;;;;;;;;;;;15.00;99.90;;;;;;5085395;28;19917;-71
2022/06/23 00:39:04;;;;;;;;;;;15.00;99.90;;;;;;5085513;28;19924;-70
2022/06/23 00:41:35;;;;;;;;;;;15.00;99.90;;;;;;5086255;28;19923;-70
2022/06/23 00:44:14;;;;;;;;;;;15.00;99.90;;;;;;5085866;28;20311;-70
2022/06/23 00:46:42;;;;;;;;;;;14.90;99.90;;;;;;5086705;28;19924;-70
2022/06/23 00:49:13;;;;;;;;;;;14.80;99.90;;;;;;5086137;28;19923;-70
2022/06/23 00:51:42;;;;;;;;;;;14.70;99.90;;;;;;5069766;28;19917;-69
2022/06/23 00:54:17;;;;;;;;;;;14.70;99.90;;;;;;5085614;28;19940;-63
2022/06/23 00:57:03;;;;;;;;;;;14.70;99.90;;;;;;5053748;28;19939;-69
2022/06/23 00:59:32;;;;;;;;;;;14.60;99.90;;;;;;5053565;28;19923;-69
2022/06/23 01:01:59;;;;;;;;;;;14.50;99.90;;;;;;5086386;28;19920;-69
2022/06/23 01:04:31;;;;;;;;;;;14.50;99.90;;;;;;5054057;28;19917;-69
2022/06/23 01:07:04;;;;;;;;;;;14.40;99.90;;;;;;5055785;28;19987;-69
2022/06/23 01:09:31;;;;;;;;;;;14.40;99.90;;;;;;5089308;28;19917;-69
2022/06/23 01:12:00;;;;;;;;;;;14.30;99.90;;;;;;5057116;28;19924;-69
2022/06/23 01:14:36;;;;;;;;;;;14.20;99.90;;;;;;5090430;28;19924;-69
2022/06/23 01:17:13;;;;;;;;;;;14.20;99.90;;;;;;5058292;28;19917;-69
2022/06/23 01:20:00;;;;;;;;;;;14.10;99.90;;;;;;5057005;28;19916;-70
2022/06/23 01:22:37;;;;;;;;;;;14.10;99.90;;;;;;5089941;28;19917;-70
2022/06/23 01:25:16;;;;;;;;;;;14.00;99.90;;;;;;5090234;28;19924;-70
2022/06/23 01:27:55;;;;;;;;;;;14.00;99.90;;;;;;5056018;28;20046;-70
2022/06/23 01:30:21;;;;;;;;;;;14.00;99.90;;;;;;5056867;28;19924;-70
2022/06/23 01:32:51;;;;;;;;;;;13.90;99.90;;;;;;5088903;28;19916;-70
2022/06/23 01:35:20;;;;;;;;;;;13.90;99.90;;;;;;5057917;28;19920;-70
2022/06/23 01:37:48;;;;;;;;;;;13.90;99.90;;;;;;5057228;28;19917;-70
2022/06/23 01:40:29;;;;;;;;;;;13.80;99.90;;;;;;5057764;28;20007;-70
2022/06/23 01:43:00;;;;;;;;;;;13.80;99.90;;;;;;5057249;28;20258;-70
2022/06/23 01:45:53;;;;;;;;;;;13.70;99.90;;;;;;5089620;28;19917;-70
2022/06/23 01:51:19;;;;;;;;;;;13.70;99.90;;;;;;5084883;28;20221;-69
2022/06/23 01:53:46;;;;;;;;;;;13.60;99.90;;;;;;5055185;28;19916;-69
2022/06/23 01:56:12;;;;;;;;;;;13.60;99.90;;;;;;5089564;28;19917;-69
2022/06/23 01:58:39;;;;;;;;;;;13.50;99.90;;;;;;5055426;28;19917;-69
2022/06/23 02:01:06;;;;;;;;;;;13.50;99.90;;;;;;5056618;28;19917;-69
2022/06/23 02:03:35;;;;;;;;;;;13.40;99.90;;;;;;5071765;28;20363;-69
2022/06/23 02:06:04;;;;;;;;;;;13.40;99.90;;;;;;5057348;28;19928;-69
2022/06/23 02:08:49;;;;;;;;;;;13.30;99.90;;;;;;5056143;28;20014;-69
2022/06/23 02:11:36;;;;;;;;;;;13.30;99.90;;;;;;5056334;28;19916;-70
2022/06/23 02:14:27;;;;;;;;;;;13.20;99.90;;;;;;5055505;28;19939;-70
2022/06/23 02:16:53;;;;;;;;;;;13.20;99.90;;;;;;5063923;28;19916;-70
2022/06/23 02:19:40;;;;;;;;;;;13.20;99.90;;;;;;5055929;28;20272;-70
2022/06/23 02:22:13;;;;;;;;;;;13.10;99.90;;;;;;5089085;28;20247;-70
2022/06/23 02:24:47;;;;;;;;;;;13.20;99.90;;;;;;5056640;28;19917;-70
2022/06/23 02:27:33;;;;;;;;;;;13.20;99.90;;;;;;5088219;28;19920;-69
2022/06/23 02:30:11;;;;;;;;;;;13.20;99.90;;;;;;5056874;28;19923;-69
2022/06/23 02:32:37;;;;;;;;;;;13.20;99.90;;;;;;5089206;28;19917;-69
2022/06/23 02:35:23;;;;;;;;;;;13.20;99.90;;;;;;5056521;28;20260;-70
2022/06/23 02:37:51;;;;;;;;;;;13.20;99.90;;;;;;5055824;28;19984;-69
2022/06/23 02:40:27;;;;;;;;;;;13.20;99.90;;;;;;5056626;28;19924;-69
2022/06/23 02:42:56;;;;;;;;;;;13.20;99.90;;;;;;5054287;28;20383;-69
2022/06/23 02:45:22;;;;;;;;;;;13.10;99.90;;;;;;5055773;28;19999;-70
2022/06/23 02:48:06;;;;;;;;;;;13.20;99.90;;;;;;5055384;28;19917;-70
2022/06/23 02:50:48;;;;;;;;;;;13.20;99.90;;;;;;5070949;28;20320;-70
2022/06/23 02:53:15;;;;;;;;;;;13.20;99.90;;;;;;5055118;28;19916;-69
2022/06/23 02:55:45;;;;;;;;;;;13.20;99.90;;;;;;5055496;28;20007;-69
2022/06/23 02:58:11;;;;;;;;;;;13.30;99.90;;;;;;5087262;28;19916;-72
2022/06/23 03:00:44;;;;;;;;;;;13.40;99.90;;;;;;5055118;28;19928;-71
2022/06/23 03:03:16;;;;;;;;;;;13.50;99.90;;;;;;5056028;28;20539;-70
2022/06/23 03:05:56;;;;;;;;;;;13.50;99.90;;;;;;5055007;28;19920;-70
2022/06/23 03:08:31;;;;;;;;;;;13.50;99.90;;;;;;5087054;28;19916;-71
2022/06/23 03:11:06;;;;;;;;;;;13.60;99.90;;;;;;5088006;28;20263;-71
2022/06/23 03:13:33;;;;;;;;;;;13.70;99.90;;;;;;5055234;28;19924;-71
2022/06/23 03:16:02;;;;;;;;;;;13.70;99.90;;;;;;5056428;28;19917;-71
2022/06/23 03:18:31;;;;;;;;;;;13.80;99.90;;;;;;5087293;28;19916;-71
2022/06/23 03:21:00;;;;;;;;;;;13.80;99.90;;;;;;5054737;28;19921;-71
2022/06/23 03:23:32;;;;;;;;;;;13.80;99.90;;;;;;5054720;28;20426;-71
2022/06/23 03:25:59;;;;;;;;;;;13.80;99.90;;;;;;5054708;28;20352;-72
2022/06/23 03:28:29;;;;;;;;;;;13.90;99.90;;;;;;5053888;28;20348;-71
2022/06/23 03:30:55;;;;;;;;;;;13.90;99.90;;;;;;5054568;28;19999;-72
2022/06/23 03:33:24;;;;;;;;;;;13.90;99.90;;;;;;5054804;28;20216;-72
2022/06/23 03:35:55;;;;;;;;;;;13.90;99.90;;;;;;5053436;28;20378;-71
2022/06/23 03:41:55;;;;;;;;;;;14.00;99.90;;;;;;5064012;28;19923;-72
2022/06/23 03:44:22;;;;;;;;;;;14.00;99.90;;;;;;5054036;28;19924;-72
2022/06/23 03:46:51;;;;;;;;;;;14.10;99.90;;;;;;5055364;28;20019;-71
2022/06/23 03:49:26;;;;;;;;;;;14.10;99.90;;;;;;5086595;28;19917;-69
2022/06/23 03:51:54;;;;;;;;;;;14.10;99.90;;;;;;5087109;28;19923;-69
2022/06/23 03:54:22;;;;;;;;;;;14.20;99.90;;;;;;5054428;28;19917;-69
2022/06/23 03:56:53;;;;;;;;;;;14.20;99.90;;;;;;5086325;28;19944;-60
2022/06/23 03:59:25;;;;;;;;;;;14.30;99.90;;;;;;5087284;28;20003;-68
2022/06/23 04:02:10;;;;;;;;;;;14.30;99.90;;;;;;5054402;28;20355;-69
2022/06/23 04:04:48;;;;;;;;;;;14.40;99.90;;;;;;5053959;28;19916;-69
2022/06/23 04:07:30;;;;;;;;;;;14.40;99.90;;;;;;5053326;28;20012;-69
2022/06/23 04:10:00;;;;;;;;;;;14.50;99.90;;;;;;5054422;28;19920;-69
2022/06/23 04:12:40;;;;;;;;;;;14.50;99.90;;;;;;5068091;28;19924;-69
2022/06/23 04:15:09;;;;;;;;;;;14.50;99.90;;;;;;5086755;28;20003;-69
2022/06/23 04:17:41;;;;;;;;;;;14.60;99.90;;;;;;5085806;28;20260;-69
2022/06/23 04:20:13;;;;;;;;;;;14.50;99.90;;;;;;5085058;28;19927;-69
2022/06/23 04:23:00;;;;;;;;;;;14.60;99.90;;;;;;5052483;28;19917;-69
2022/06/23 04:25:41;;;;;;;;;;;14.60;99.90;;;;;;5053537;28;19917;-69
2022/06/23 04:28:14;;;;;;;;;;;14.60;99.90;;;;;;5053619;28;19920;-69
2022/06/23 04:30:41;;;;;;;;;;;14.60;99.90;;;;;;5086981;28;19920;-69
2022/06/23 04:33:13;;;;;;;;;;;14.70;99.90;;;;;;5086220;28;19916;-69
2022/06/23 04:35:40;;;;;;;;;;;14.80;99.90;;;;;;5086763;28;19916;-69
2022/06/23 04:38:13;;;;;;;;;;;14.80;99.90;;;;;;5053750;28;19917;-69
2022/06/23 04:40:40;;;;;;;;;;;14.80;99.90;;;;;;5053698;28;20348;-69
2022/06/23 04:43:19;;;;;;;;;;;14.80;99.90;;;;;;5053411;28;19917;-69
2022/06/23 04:45:51;;;;;;;;;;;14.80;99.90;;;;;;5053375;28;19923;-69
2022/06/23 04:48:40;;;;;;;;;;;14.90;99.90;;;;;;5053674;28;20033;-69
2022/06/23 04:51:24;;;;;;;;;;;14.90;99.90;;;;;;5054480;28;19917;-69
2022/06/23 04:53:53;;;;;;;;;;;14.90;99.90;;;;;;5085284;28;20307;-69
2022/06/23 04:56:23;;;;;;;;;;;14.90;99.90;;;;;;5052150;28;19923;-68
2022/06/23 04:58:55;;;;;;;;;;;14.90;99.90;;;;;;5069509;28;19920;-69
2022/06/23 05:01:22;;;;;;;;;;;14.90;99.90;;;;;;5052335;28;19917;-68
2022/06/23 05:03:50;;;;;;;;;;;14.90;99.90;;;;;;5068439;28;19916;-69
2022/06/23 05:06:37;;;;;;;;;;;14.90;99.90;;;;;;5085558;28;20253;-69
2022/06/23 05:09:11;;;;;;;;;;;15.00;99.90;;;;;;5085255;28;19917;-68
2022/06/23 05:11:43;;;;;;;;;;;15.00;99.90;;;;;;5053245;28;20377;-69
2022/06/23 05:14:34;;;;;;;;;;;15.00;99.90;;;;;;5085502;28;19917;-68
2022/06/23 05:17:02;;;;;;;;;;;15.00;99.90;;;;;;5051902;28;19917;-69
2022/06/23 05:19:31;;;;;;;;;;;15.10;99.90;;;;;;5085417;28;19924;-69
2022/06/23 05:21:58;;;;;;;;;;;15.20;99.90;;;;;;5052760;28;19916;-68
2022/06/23 05:24:27;;;;;;;;;;;15.20;99.90;;;;;;5085482;28;19917;-69
2022/06/23 05:26:57;;;;;;;;;;;15.30;99.90;;;;;;5051885;28;19917;-68
2022/06/23 05:29:25;;;;;;;;;;;15.40;99.90;;;;;;5085935;28;19916;-69
2022/06/23 05:31:57;;;;;;;;;;;15.40;99.90;;;;;;5085085;28;19916;-69
2022/06/23 05:34:24;;;;;;;;;;;15.50;99.90;;;;;;5086219;28;19975;-69
2022/06/23 05:36:55;;;;;;;;;;;15.50;99.90;;;;;;5085301;28;19923;-69
2022/06/23 05:39:27;;;;;;;;;;;15.50;99.90;;;;;;5085951;28;19923;-69
2022/06/23 05:41:55;;;;;;;;;;;15.60;99.90;;;;;;5053742;28;19923;-69
2022/06/23 05:44:29;;;;;;;;;;;15.50;99.90;;;;;;5053161;28;19916;-69
2022/06/23 05:46:58;;;;;;;;;;;15.50;99.90;;;;;;5085323;28;20278;-68
2022/06/23 05:49:33;;;;;;;;;;;15.50;99.90;;;;;;5052895;28;19963;-69
2022/06/23 05:52:00;;;;;;;;;;;15.50;99.90;;;;;;5087014;28;19917;-68
2022/06/23 05:54:27;;;;;;;;;;;15.50;99.90;;;;;;5055504;28;19925;-69
2022/06/23 05:56:58;;;;;;;;;;;15.60;99.90;;;;;;5056552;28;19939;-69
2022/06/23 05:59:47;;;;;;;;;;;15.70;99.90;;;;;;5057421;28;19939;-69
2022/06/23 06:02:19;;;;;;;;;;;15.80;99.90;;;;;;5058718;28;19927;-69
2022/06/23 06:04:50;;;;;;;;;;;15.90;99.90;;;;;;5088242;28;19943;-71
2022/06/23 06:07:18;;;;;;;;;;;16.00;99.90;;;;;;5057044;28;19917;-70
2022/06/23 06:09:44;;;;;;;;;;;16.00;99.90;;;;;;5088382;28;19917;-70
2022/06/23 06:12:15;;;;;;;;;;;16.10;99.90;;;;;;5057140;28;19917;-71
2022/06/23 06:14:54;;;;;;;;;;;16.10;99.90;;;;;;5072382;28;20244;-69
2022/06/23 06:17:21;;;;;;;;;;;16.10;99.90;;;;;;5056223;28;19916;-72
2022/06/23 06:19:48;;;;;;;;;;;16.10;99.90;;;;;;5088788;28;20230;-69
2022/06/23 06:22:35;;;;;;;;;;;16.10;99.90;;;;;;5088248;28;19924;-69
2022/06/23 06:25:03;;;;;;;;;;;16.10;99.90;;;;;;5064852;28;19916;-69
2022/06/23 06:27:29;;;;;;;;;;;16.20;99.90;;;;;;5088082;28;19924;-74
2022/06/23 06:29:57;;;;;;;;;;;16.20;99.90;;;;;;5087616;28;19960;-78
2022/06/23 06:32:33;;;;;;;;;;;16.20;99.90;;;;;;5088224;28;20375;-78
2022/06/23 06:35:09;;;;;;;;;;;16.20;99.90;;;;;;5087203;28;19962;-79
2022/06/23 06:37:38;;;;;;;;;;;16.30;99.90;;;;;;5055606;28;19923;-77
2022/06/23 06:40:05;;;;;;;;;;;16.40;99.90;;;;;;5055745;28;19924;-81
2022/06/23 06:42:33;;;;;;;;;;;16.40;99.90;;;;;;5087615;28;19923;-79
2022/06/23 06:45:00;;;;;;;;;;;16.50;99.90;;;;;;5071684;28;19920;-79
2022/06/23 06:47:30;;;;;;;;;;;16.60;99.90;;;;;;5088593;28;20256;-80
2022/06/23 06:50:05;;;;;;;;;;;16.60;99.90;;;;;;5087152;28;19955;-82
2022/06/23 06:52:32;;;;;;;;;;;16.60;99.90;;;;;;5088304;28;19916;-81
2022/06/23 06:55:00;;;;;;;;;;;16.50;99.90;;;;;;5071236;28;19920;-82
2022/06/23 06:57:42;;;;;;;;;;;16.50;99.90;;;;;;5086039;28;19921;-79
2022/06/23 07:00:19;;;;;;;;;;;16.60;99.90;;;;;;5071434;28;19920;-77
2022/06/23 07:02:47;;;;;;;;;;;16.60;99.90;;;;;;5086194;28;20012;-77
2022/06/23 07:05:28;;;;;;;;;;;16.60;99.90;;;;;;5086822;28;19924;-78
2022/06/23 07:08:01;;;;;;;;;;;16.60;99.90;;;;;;5071411;28;19916;-76
2022/06/23 07:10:43;;;;;;;;;;;16.70;99.90;;;;;;5054063;28;19916;-79
2022/06/23 07:13:13;;;;;;;;;;;16.60;99.90;;;;;;5055902;28;19952;-77
2022/06/23 07:15:43;;;;;;;;;;;16.60;99.90;;;;;;5053606;28;19917;-69
2022/06/23 07:18:42;;;;;;;;;;;16.60;99.90;;;;;;5087980;28;19920;-77
2022/06/23 07:21:14;;;;;;;;;;;16.50;99.90;;;;;;5064256;28;19917;-81
2022/06/23 07:23:50;;;;;;;;;;;16.40;99.90;;;;;;5086973;28;20255;-67
2022/06/23 07:26:23;;;;;;;;;;;16.30;99.90;;;;;;5087054;28;19917;-70
2022/06/23 07:28:50;;;;;;;;;;;16.30;99.90;;;;;;5054610;28;20353;-76
2022/06/23 07:31:23;;;;;;;;;;;16.30;99.90;;;;;;5086440;28;19924;-70
2022/06/23 07:33:52;;;;;;;;;;;16.30;99.90;;;;;;5087428;28;19974;-71
2022/06/23 07:36:22;;;;;;;;;;;16.40;99.90;;;;;;5086454;28;19964;-76
2022/06/23 07:38:51;;;;;;;;;;;16.40;99.90;;;;;;5054455;28;19920;-72
2022/06/23 07:41:37;;;;;;;;;;;16.50;99.90;;;;;;5054747;28;19916;-73
2022/06/23 07:44:07;;;;;;;;;;;16.50;99.90;;;;;;5069620;28;19917;-72
2022/06/23 07:46:34;;;;;;;;;;;16.60;99.90;;;;;;5054458;28;19924;-69
2022/06/23 07:49:02;;;;;;;;;;;16.60;99.90;;;;;;5053289;28;19978;-68
2022/06/23 07:51:28;;;;;;;;;;;16.70;99.90;;;;;;5086516;28;20399;-68
2022/06/23 07:53:56;;;;;;;;;;;16.60;99.90;;;;;;5086276;28;19967;-69
2022/06/23 07:56:23;;;;;;;;;;;16.70;99.90;;;;;;5054356;28;19965;-66
2022/06/23 07:58:52;;;;;;;;;;;16.60;99.90;;;;;;5055206;28;19928;-66
2022/06/23 08:01:22;;;;;;;;;;;16.60;99.90;;;;;;5054112;28;19921;-69
2022/06/23 08:04:04;;;;;;;;;;;16.50;99.90;;;;;;5053949;28;20011;-68
2022/06/23 08:06:31;;;;;;;;;;;16.60;99.90;;;;;;5053950;28;19916;-68
2022/06/23 08:09:00;;;;;;;;;;;16.60;99.90;;;;;;5069581;28;19922;-69
2022/06/23 08:14:33;;;;;;;;;;;16.40;99.90;;;;;;5075203;28;19916;-67
2022/06/23 08:17:00;;;;;;;;;;;16.30;99.90;;;;;;5054049;28;19927;-69
2022/06/23 08:19:30;;;;;;;;;;;16.30;99.90;;;;;;5085799;28;19920;-69
2022/06/23 08:22:00;;;;;;;;;;;16.40;99.90;;;;;;5054461;28;19923;-71
2022/06/23 08:24:27;;;;;;;;;;;16.40;99.90;;;;;;5053916;28;19938;-69
2022/06/23 08:26:55;;;;;;;;;;;16.40;99.90;;;;;;5054361;28;19916;-67
2022/06/23 08:29:25;;;;;;;;;;;16.50;99.90;;;;;;5053627;28;19916;-67
2022/06/23 08:31:51;;;;;;;;;;;16.50;99.90;;;;;;5069142;28;20306;-67
2022/06/23 08:34:28;;;;;;;;;;;16.50;99.90;;;;;;5084014;28;19917;-67
2022/06/23 08:37:00;;;;;;;;;;;16.60;99.90;;;;;;5054215;28;19917;-67
2022/06/23 08:39:42;;;;;;;;;;;16.70;99.90;;;;;;5085608;28;19924;-68
2022/06/23 08:42:13;;;;;;;;;;;16.80;99.90;;;;;;5085434;28;19921;-67
2022/06/23 08:44:46;;;;;;;;;;;16.90;99.90;;;;;;5054507;28;19956;-67
2022/06/23 08:47:12;;;;;;;;;;;16.90;99.90;;;;;;5054213;28;19916;-68
2022/06/23 08:49:41;;;;;;;;;;;17.00;99.90;;;;;;5052985;28;19928;-67
2022/06/23 08:52:14;;;;;;;;;;;17.00;99.90;;;;;;5053677;28;19916;-67
2022/06/23 08:55:01;;;;;;;;;;;17.20;99.90;;;;;;5053623;28;20352;-67
2022/06/23 08:57:28;;;;;;;;;;;17.40;99.90;;;;;;5085432;28;20454;-67
2022/06/23 08:59:57;;;;;;;;;;;17.50;99.90;;;;;;5053542;28;20331;-67
2022/06/23 09:02:39;;;;;;;;;;;17.60;99.90;;;;;;5054112;28;19916;-67
2022/06/23 09:05:25;;;;;;;;;;;17.60;99.90;;;;;;5054100;28;19917;-68
2022/06/23 09:08:10;;;;;;;;;;;17.70;99.90;;;;;;5054370;28;20213;-68
2022/06/23 09:10:55;;;;;;;;;;;17.90;99.90;;;;;;5053194;28;19920;-68
2022/06/23 09:13:31;;;;;;;;;;;17.90;99.90;;;;;;5053212;28;19969;-67
2022/06/23 09:16:05;;;;;;;;;;;18.10;99.90;;;;;;5053063;28;19916;-67
2022/06/23 09:18:32;;;;;;;;;;;18.30;99.90;;;;;;5086165;28;20232;-67
2022/06/23 09:21:14;;;;;;;;;;;18.50;99.90;;;;;;5053097;28;20007;-67
2022/06/23 09:23:51;;;;;;;;;;;18.70;99.90;;;;;;5082765;28;19983;-67
2022/06/23 09:26:33;;;;;;;;;;;19.00;99.90;;;;;;5054833;28;20225;-68
2022/06/23 09:29:18;;;;;;;;;;;19.10;99.90;;;;;;5057165;28;20286;-68
2022/06/23 09:31:58;;;;;;;;;;;19.30;99.90;;;;;;5057941;28;19916;-68
2022/06/23 09:34:25;;;;;;;;;;;19.40;99.90;;;;;;5056948;28;19924;-68
2022/06/23 09:37:04;;;;;;;;;;;19.30;99.90;;;;;;5057599;28;19916;-68
2022/06/23 09:39:49;;;;;;;;;;;19.20;99.90;;;;;;5089478;28;19917;-68
2022/06/23 09:42:19;;;;;;;;;;;19.30;99.90;;;;;;5056593;28;20103;-68
2022/06/23 09:44:55;;;;;;;;;;;19.40;99.90;;;;;;5056515;28;19923;-68
2022/06/23 09:47:26;;;;;;;;;;;19.50;99.90;;;;;;5055727;28;20380;-68
2022/06/23 09:49:54;;;;;;;;;;;19.70;99.90;;;;;;5088800;28;19979;-68
2022/06/23 09:52:27;;;;;;;;;;;19.90;99.90;;;;;;5056469;28;20378;-68
2022/06/23 09:55:20;;;;;;;;;;;20.00;99.90;;;;;;5056319;28;20012;-68
2022/06/23 09:57:47;;;;;;;;;;;20.10;99.90;;;;;;5056963;28;20272;-68
2022/06/23 10:00:49;;;;;;;;;;;20.10;99.90;;;;;;5057023;28;19920;-68
2022/06/23 10:03:34;;;;;;;;;;;20.20;99.90;;;;;;5074171;28;20348;-68
2022/06/23 10:06:08;;;;;;;;;;;20.40;99.90;;;;;;5056900;28;19924;-68
2022/06/23 10:08:50;;;;;;;;;;;20.50;99.90;;;;;;5056401;28;19916;-68
2022/06/23 10:11:23;;;;;;;;;;;20.50;99.90;;;;;;5086749;28;19916;-68
2022/06/23 10:13:49;;;;;;;;;;;20.60;99.90;;;;;;5056451;28;19920;-68
2022/06/23 10:16:28;;;;;;;;;;;20.70;99.90;;;;;;5056235;28;19923;-68
2022/06/23 10:19:15;;;;;;;;;;;20.90;99.90;;;;;;5056209;28;20330;-68
2022/06/23 10:21:57;;;;;;;;;;;21.20;99.90;;;;;;5071217;28;19923;-68
2022/06/23 10:24:33;;;;;;;;;;;21.40;99.90;;;;;;5056697;28;19916;-68
2022/06/23 10:27:36;;;;;;;;;;;21.30;99.90;;;;;;5056086;28;19920;-68
2022/06/23 10:30:08;;;;;;;;;;;21.20;99.90;;;;;;5073903;28;20463;-68
2022/06/23 10:32:55;;;;;;;;;;;21.20;99.90;;;;;;5057078;28;19926;-68
2022/06/23 10:35:33;;;;;;;;;;;21.30;99.90;;;;;;5057060;28;19923;-68
2022/06/23 10:38:06;;;;;;;;;;;21.40;99.90;;;;;;5087744;28;19928;-70
2022/06/23 10:40:45;;;;;;;;;;;21.40;99.90;;;;;;5055565;28;20376;-73
2022/06/23 10:43:18;;;;;;;;;;;21.40;99.90;;;;;;5055879;28;19917;-71
2022/06/23 10:45:56;;;;;;;;;;;21.40;99.90;;;;;;5056299;28;20312;-68
2022/06/23 10:48:32;;;;;;;;;;;21.50;99.90;;;;;;5087493;28;19966;-71
2022/06/23 10:50:59;;;;;;;;;;;21.60;99.90;;;;;;5055386;28;19923;-71
2022/06/23 10:53:38;;;;;;;;;;;21.50;99.90;;;;;;5055637;28;19917;-72
2022/06/23 10:56:07;;;;;;;;;;;21.30;99.90;;;;;;5056401;28;19917;-72
2022/06/23 10:58:49;;;;;;;;;;;21.20;99.90;;;;;;5053742;28;19972;-72
2022/06/23 11:01:22;;;;;;;;;;;21.10;99.90;;;;;;5055237;28;19920;-73
2022/06/23 11:04:08;;;;;;;;;;;21.20;99.90;;;;;;5054883;28;19999;-70
2022/06/23 11:06:34;;;;;;;;;;;21.40;99.90;;;;;;5055910;28;19917;-70
2022/06/23 11:09:04;;;;;;;;;;;21.50;99.90;;;;;;5055032;28;20315;-72
2022/06/23 11:11:52;;;;;;;;;;;21.60;99.90;;;;;;5055310;28;20318;-76
2022/06/23 11:14:38;;;;;;;;;;;21.50;99.90;;;;;;5054641;28;20016;-76
2022/06/23 11:17:14;;;;;;;;;;;21.60;99.90;;;;;;5055957;28;19939;-65
2022/06/23 11:19:58;;;;;;;;;;;21.50;99.90;;;;;;5054873;28;19966;-74
2022/06/23 11:22:44;;;;;;;;;;;21.40;99.90;;;;;;5070196;28;20418;-75
2022/06/23 11:25:14;;;;;;;;;;;21.40;99.90;;;;;;5054661;28;19916;-76
2022/06/23 11:27:59;;;;;;;;;;;21.30;99.90;;;;;;5055772;28;19920;-76
2022/06/23 11:30:32;;;;;;;;;;;21.30;99.90;;;;;;5055404;28;19916;-75
2022/06/23 11:33:08;;;;;;;;;;;21.30;99.90;;;;;;5055411;28;19999;-73
2022/06/23 11:35:40;;;;;;;;;;;21.40;99.90;;;;;;5054490;28;19916;-76
2022/06/23 11:38:41;;;;;;;;;;;21.50;99.90;;;;;;5053264;28;19923;-77
2022/06/23 11:41:28;;;;;;;;;;;21.60;99.90;;;;;;5064007;28;19917;-77
2022/06/23 11:44:14;;;;;;;;;;;21.70;99.90;;;;;;5063730;28;20356;-75
2022/06/23 11:47:01;;;;;;;;;;;22.00;99.90;;;;;;5053388;28;20386;-73
2022/06/23 11:49:32;;;;;;;;;;;22.40;99.90;;;;;;5054155;28;19916;-73
2022/06/23 11:52:14;;;;;;;;;;;22.60;99.90;;;;;;5087090;28;19916;-73
2022/06/23 11:54:42;;;;;;;;;;;22.90;99.90;;;;;;5054618;28;20382;-72
2022/06/23 11:57:09;;;;;;;;;;;22.90;99.90;;;;;;5054122;28;20034;-72
2022/06/23 11:59:51;;;;;;;;;;;23.10;99.90;;;;;;5054293;28;19923;-72
2022/06/23 12:02:56;;;;;;;;;;;23.10;99.90;;;;;;5054856;28;19920;-73
2022/06/23 12:05:26;;;;;;;;;;;23.30;99.90;;;;;;5053977;28;20364;-74
2022/06/23 12:08:05;;;;;;;;;;;23.60;99.90;;;;;;5053888;28;19916;-70
2022/06/23 12:10:32;;;;;;;;;;;23.90;99.90;;;;;;5053876;28;19916;-72
2022/06/23 12:13:01;;;;;;;;;;;24.00;99.90;;;;;;5054720;28;19917;-72
2022/06/23 12:15:29;;;;;;;;;;;24.10;99.90;;;;;;5085504;28;19916;-71
2022/06/23 12:18:22;;;;;;;;;;;23.90;99.90;;;;;;5085776;28;20379;-71
2022/06/23 12:20:54;;;;;;;;;;;23.90;99.90;;;;;;5060301;28;19923;-74
2022/06/23 12:23:24;;;;;;;;;;;23.90;99.90;;;;;;5068985;28;19928;-70
2022/06/23 12:26:09;;;;;;;;;;;23.90;99.90;;;;;;5054701;28;19926;-75
2022/06/23 12:28:45;;;;;;;;;;;24.10;99.90;;;;;;5053592;28;20387;-77
2022/06/23 12:31:18;;;;;;;;;;;24.20;99.90;;;;;;5053914;28;19916;-74
2022/06/23 12:34:04;;;;;;;;;;;24.30;99.90;;;;;;5054528;28;20305;-72
2022/06/23 12:36:47;;;;;;;;;;;24.30;99.90;;;;;;5086435;28;19921;-67
2022/06/23 12:39:34;;;;;;;;;;;24.30;99.90;;;;;;5085029;28;19917;-70
2022/06/23 12:42:03;;;;;;;;;;;24.30;99.90;;;;;;5053453;28;19921;-72
2022/06/23 12:44:32;;;;;;;;;;;24.30;99.90;;;;;;5085483;28;19923;-73
2022/06/23 12:47:02;;;;;;;;;;;24.40;99.90;;;;;;5053483;28;19917;-68
2022/06/23 12:49:35;;;;;;;;;;;24.20;99.90;;;;;;5054184;28;19917;-68
2022/06/23 12:52:06;;;;;;;;;;;24.10;99.90;;;;;;5085734;28;19923;-63
2022/06/23 12:54:37;;;;;;;;;;;24.20;99.90;;;;;;5085550;28;20256;-69
2022/06/23 12:57:22;;;;;;;;;;;24.20;99.90;;;;;;5086374;28;19917;-67
2022/06/23 12:59:55;;;;;;;;;;;24.30;99.90;;;;;;5053332;28;19960;-74
2022/06/23 13:02:29;;;;;;;;;;;24.40;99.90;;;;;;5058366;28;19917;-71
2022/06/23 13:05:00;;;;;;;;;;;24.50;99.90;;;;;;5072863;28;19963;-72
2022/06/23 13:07:29;;;;;;;;;;;24.40;99.90;;;;;;5057278;28;19920;-67
2022/06/23 13:10:14;;;;;;;;;;;24.30;99.90;;;;;;5057217;28;19916;-74
2022/06/23 13:13:00;;;;;;;;;;;24.30;99.90;;;;;;5089297;28;19927;-75
2022/06/23 13:15:45;;;;;;;;;;;24.40;99.90;;;;;;5057272;28;19923;-69
2022/06/23 13:18:21;;;;;;;;;;;24.50;99.90;;;;;;5057298;28;19923;-69
2022/06/23 13:20:48;;;;;;;;;;;24.60;99.90;;;;;;5089169;28;19994;-68
2022/06/23 13:23:16;;;;;;;;;;;24.60;99.90;;;;;;5055888;28;20352;-68
2022/06/23 13:25:49;;;;;;;;;;;24.50;99.90;;;;;;5089111;28;19947;-68
2022/06/23 13:28:25;;;;;;;;;;;24.40;99.90;;;;;;5089385;28;19916;-68
2022/06/23 13:30:52;;;;;;;;;;;24.40;99.90;;;;;;5089977;28;19920;-68
2022/06/23 13:33:28;;;;;;;;;;;24.60;99.90;;;;;;5089160;28;19923;-68
2022/06/23 13:36:06;;;;;;;;;;;24.60;99.90;;;;;;5089868;28;20237;-67
2022/06/23 13:38:46;;;;;;;;;;;24.60;99.90;;;;;;5088868;28;19923;-68
2022/06/23 13:41:12;;;;;;;;;;;24.70;99.90;;;;;;5072096;28;19917;-68
2022/06/23 13:43:45;;;;;;;;;;;24.80;99.90;;;;;;5057845;28;19916;-68
2022/06/23 13:46:13;;;;;;;;;;;25.00;99.90;;;;;;5090099;28;20253;-67
2022/06/23 13:48:43;;;;;;;;;;;25.10;99.90;;;;;;5089320;28;19923;-67
2022/06/23 13:51:19;;;;;;;;;;;25.20;99.90;;;;;;5056077;28;19920;-67
2022/06/23 13:53:52;;;;;;;;;;;25.20;99.90;;;;;;5057806;28;19917;-68
2022/06/23 13:56:21;;;;;;;;;;;25.20;99.90;;;;;;5056599;28;19970;-68
2022/06/23 13:59:01;;;;;;;;;;;25.50;99.90;;;;;;5055925;28;19916;-68
2022/06/23 14:01:47;;;;;;;;;;;25.60;99.90;;;;;;5055727;28;19924;-68
2022/06/23 14:04:27;;;;;;;;;;;25.70;99.90;;;;;;5056161;28;19927;-68
2022/06/23 14:07:02;;;;;;;;;;;25.80;99.90;;;;;;5088534;28;20394;-67
2022/06/23 14:09:55;;;;;;;;;;;25.80;99.90;;;;;;5089524;28;20011;-68
2022/06/23 14:12:29;;;;;;;;;;;25.70;99.80;;;;;;5056366;28;19920;-68
2022/06/23 14:14:58;;;;;;;;;;;25.70;99.40;;;;;;5055259;28;20419;-68
2022/06/23 14:17:31;;;;;;;;;;;25.70;99.90;;;;;;5056014;28;20360;-68
2022/06/23 14:20:10;;;;;;;;;;;25.70;98.30;;;;;;5088853;28;20011;-69
2022/06/23 14:22:36;;;;;;;;;;;25.70;99.40;;;;;;5088783;28;19923;-71
2022/06/23 14:25:22;;;;;;;;;;;25.80;96.40;;;;;;5055911;28;19931;-69
2022/06/23 14:27:54;;;;;;;;;;;25.70;95.50;;;;;;5056032;28;19923;-69
2022/06/23 14:30:26;;;;;;;;;;;25.50;96.10;;;;;;5088242;28;19923;-70
2022/06/23 14:33:05;;;;;;;;;;;25.50;97.60;;;;;;5071402;28;19917;-69
2022/06/23 14:35:35;;;;;;;;;;;25.50;97.00;;;;;;5088138;28;19920;-67
2022/06/23 14:38:04;;;;;;;;;;;25.50;97.40;;;;;;5087934;28;20271;-67
2022/06/23 14:40:34;;;;;;;;;;;25.50;97.80;;;;;;5070815;28;19971;-67
2022/06/23 14:43:20;;;;;;;;;;;25.40;98.40;;;;;;5054299;28;19928;-67
2022/06/23 14:45:58;;;;;;;;;;;25.50;96.80;;;;;;5054237;28;19967;-67
2022/06/23 14:48:24;;;;;;;;;;;25.60;95.50;;;;;;5087700;28;19916;-67
2022/06/23 14:50:53;;;;;;;;;;;25.80;96.90;;;;;;5056193;28;19921;-67
2022/06/23 14:53:29;;;;;;;;;;;26.00;98.10;;;;;;5087724;28;19955;-67
2022/06/23 14:56:02;;;;;;;;;;;26.30;96.10;;;;;;5055326;28;19924;-67
2022/06/23 14:58:33;;;;;;;;;;;26.40;92.60;;;;;;5055701;28;19916;-66
2022/06/23 15:01:06;;;;;;;;;;;26.50;92.80;;;;;;5087432;28;19917;-67
2022/06/23 15:03:33;;;;;;;;;;;26.40;92.20;;;;;;5054978;28;19916;-66
2022/06/23 15:06:08;;;;;;;;;;;26.50;92.00;;;;;;5054020;28;19916;-67